Bangkok (Suvarnabhumi), Thailand

11:15 PM ICT on August 01, 2015 (GMT +0700)
Bangkok (Suvarnabhumi) | | Change Station
CLOSE
Current Station
Airport
Location: Bangkok (Suvarnabhumi),
Elevation: 7 ft
Nearby Weather Stations

Elev 7 ft 13.36 °N, 100.98 °E | Updated 15 minutes ago

Light Rain
Light Rain
81 °F
Feels Like 85 °F
N
5
Wind Variable Wind from SSE

Today
High -- | Low -- °F
--% Chance of Precip.
Yesterday
High -- | Low -- °F
Precip. -- in
6:00 AM 6:43 PM
Full, 98% visible
Pressure 29.89 in
Visibility 6.2 miles
Clouds Few 2000 ft
Scattered Clouds 6000 ft
Mostly Cloudy 13000 ft
Heat Index 85 °F
Dew Point 73 °F
Humidity 79%
Rainfall 0.00 in
Snow Depth Not available.
UV 0 out of 12
Pollen Not available.
Air Quality Not available.
Flu Activity Not available.
METAR VTBS 011600Z 15004KT 110V200 9999 -RA FEW020 SCT060 BKN130 27/23 Q1012 NOSIG

More Conditions Fewer Conditions

Pressure 29.89 in
Visibility 6.2 miles
Clouds Few 2000 ft
Scattered Clouds 6000 ft
Mostly Cloudy 13000 ft
Heat Index 85 °F
Dew Point 73 °F
Humidity 79%
Rainfall 0.00 in
Snow Depth Not available.
UV 0 out of 12
Pollen Not available.
Air Quality Not available.
Flu Activity Not available.
METAR VTBS 011600Z 15004KT 110V200 9999 -RA FEW020 SCT060 BKN130 27/23 Q1012 NOSIG

More Conditions Fewer Conditions

10-Day Weather Forecast

×

Almanac

Astronomy

Aug. 01, 2015 Rise Set
Actual Time
Civil Twilight
Nautical Twilight
Astronomical Twilight
Moon
Length of Visible Light
Length of Day
Tomorrow will be .
, % of the Moon is Illuminated

Today's Extremes

Country Highs Country Lows

Community

WunderPhotos

Upload Photos

1,842,975 photos uploaded!

WunderBlogs® & News

Nearby

Air Quality

  Air Quality AQ Index Pollutant
Not available.

Snow Depth

Station Depth Elevation

Earthquake Activity

City Distance Mag. Time & Date
Minimum magnitude displayed is 2.5.

Coastal Water Temperatures

Place Temperature

Stations

Nearby Weather Stations

Station Location Temp. Windchill Dew Point Humidity Wind Precip. Elev Updated Type